Time;durP1;ratioP1;P1;durP2;ratioP2;P2;SDS_P1;SDS_P2;PMS_P1;PMS_P2;Temp;Humidity;BMP_temperature;BMP_pressure;BME280_temperature;BME280_humidity;BME280_pressure;Samples;Min_cycle;Max_cycle;Signal;HPM_P1;HPM_P2
2023/12/16 00:00:41;;;;;;;11.93;10.20;;;;;;;;;;5005170;28;20206;-64
2023/12/16 00:03:09;;;;;;;13.95;8.82;;;;;;;;;;5008315;28;20202;-64
2023/12/16 00:05:39;;;;;;;12.48;9.48;;;;;;;;;;5000904;28;20707;-63
2023/12/16 00:08:07;;;;;;;11.13;9.40;;;;;;;;;;4989996;28;20738;-63
2023/12/16 00:10:36;;;;;;;12.68;9.30;;;;;;;;;;4995912;28;20191;-63
2023/12/16 00:13:04;;;;;;;16.92;10.50;;;;;;;;;;5007388;28;20198;-64
2023/12/16 00:15:32;;;;;;;13.10;11.60;;;;;;;;;;5008996;28;20722;-63
2023/12/16 00:18:01;;;;;;;15.15;11.32;;;;;;;;;;5010441;28;20643;-63
2023/12/16 00:20:29;;;;;;;19.25;10.70;;;;;;;;;;4997102;28;20221;-64
2023/12/16 00:22:58;;;;;;;13.15;10.23;;;;;;;;;;4979460;28;20203;-63
2023/12/16 00:25:27;;;;;;;13.77;9.38;;;;;;;;;;5006633;28;20194;-63
2023/12/16 00:27:55;;;;;;;12.57;10.30;;;;;;;;;;4997532;28;20202;-64
2023/12/16 00:30:23;;;;;;;18.98;13.00;;;;;;;;;;4997517;28;20639;-63
2023/12/16 00:32:52;;;;;;;15.55;11.68;;;;;;;;;;4993557;28;20510;-63
2023/12/16 00:35:20;;;;;;;50.10;24.52;;;;;;;;;;5008479;28;20198;-64
2023/12/16 00:37:48;;;;;;;17.98;13.13;;;;;;;;;;4996320;28;20202;-63
2023/12/16 00:40:18;;;;;;;18.27;12.07;;;;;;;;;;5008960;28;20234;-63
2023/12/16 00:42:46;;;;;;;17.00;11.13;;;;;;;;;;5007979;28;20251;-63
2023/12/16 00:45:15;;;;;;;15.85;11.50;;;;;;;;;;5008848;28;20222;-63
2023/12/16 00:47:43;;;;;;;15.60;12.00;;;;;;;;;;5003521;28;20202;-63
2023/12/16 00:50:12;;;;;;;12.85;11.25;;;;;;;;;;5009676;28;20212;-63
2023/12/16 00:52:40;;;;;;;16.67;10.25;;;;;;;;;;4994025;28;20210;-63
2023/12/16 00:55:09;;;;;;;15.60;10.77;;;;;;;;;;4991338;28;20296;-63
2023/12/16 00:57:39;;;;;;;15.73;10.68;;;;;;;;;;4996015;28;20269;-63
2023/12/16 01:00:07;;;;;;;19.48;10.20;;;;;;;;;;5003501;28;20220;-63
2023/12/16 01:02:36;;;;;;;17.77;11.40;;;;;;;;;;4994514;28;20610;-63
2023/12/16 01:05:04;;;;;;;12.73;9.73;;;;;;;;;;4990273;28;20566;-63
2023/12/16 01:07:33;;;;;;;16.27;10.35;;;;;;;;;;5020495;28;20202;-63
2023/12/16 01:10:01;;;;;;;15.75;10.73;;;;;;;;;;5003698;28;20203;-63
2023/12/16 01:12:30;;;;;;;14.60;10.77;;;;;;;;;;5006975;28;20228;-64
2023/12/16 01:14:59;;;;;;;15.63;11.32;;;;;;;;;;4995801;28;20255;-63
2023/12/16 01:17:27;;;;;;;14.98;10.38;;;;;;;;;;5005033;28;20235;-63
2023/12/16 01:19:56;;;;;;;15.38;11.10;;;;;;;;;;5009721;28;20228;-63
2023/12/16 01:22:24;;;;;;;15.02;11.57;;;;;;;;;;5001785;28;20207;-63
2023/12/16 01:24:52;;;;;;;18.58;11.85;;;;;;;;;;4990879;28;20239;-64
2023/12/16 01:27:21;;;;;;;14.35;11.45;;;;;;;;;;4994637;28;20198;-63
2023/12/16 01:29:49;;;;;;;14.20;11.20;;;;;;;;;;4999340;28;20235;-63
2023/12/16 01:32:19;;;;;;;23.05;14.30;;;;;;;;;;4979814;28;20199;-63
2023/12/16 01:34:47;;;;;;;18.25;13.20;;;;;;;;;;4992471;28;20198;-63
2023/12/16 01:37:16;;;;;;;18.75;12.88;;;;;;;;;;4990472;28;20244;-63
2023/12/16 01:39:44;;;;;;;20.17;12.88;;;;;;;;;;5000675;28;20250;-63
2023/12/16 01:42:13;;;;;;;32.20;18.17;;;;;;;;;;5006511;28;20198;-63
2023/12/16 01:44:41;;;;;;;32.38;17.95;;;;;;;;;;5008112;28;20598;-66
2023/12/16 01:47:09;;;;;;;36.38;18.23;;;;;;;;;;5007670;28;20202;-63
2023/12/16 01:49:39;;;;;;;44.85;23.30;;;;;;;;;;4999572;28;20255;-64
2023/12/16 01:52:07;;;;;;;25.48;14.45;;;;;;;;;;4994092;28;20199;-64
2023/12/16 01:54:36;;;;;;;20.77;12.48;;;;;;;;;;4988531;28;20555;-63
2023/12/16 01:57:04;;;;;;;15.88;11.57;;;;;;;;;;4993227;28;20207;-63
2023/12/16 01:59:33;;;;;;;15.65;11.13;;;;;;;;;;5007974;28;20213;-63
2023/12/16 02:02:01;;;;;;;20.05;13.25;;;;;;;;;;5002476;28;20293;-67
2023/12/16 02:04:29;;;;;;;16.65;12.73;;;;;;;;;;5003216;28;20258;-66
2023/12/16 02:06:59;;;;;;;14.73;10.65;;;;;;;;;;5004235;28;20278;-67
2023/12/16 02:09:27;;;;;;;17.80;12.80;;;;;;;;;;5003543;28;20294;-67
2023/12/16 02:11:55;;;;;;;21.40;13.50;;;;;;;;;;5004591;28;20238;-66
2023/12/16 02:14:24;;;;;;;15.43;12.05;;;;;;;;;;5013870;28;20257;-66
2023/12/16 02:16:52;;;;;;;17.83;11.35;;;;;;;;;;5018555;28;20246;-67
2023/12/16 02:19:27;;;;;;;14.48;10.95;;;;;;;;;;4995955;28;20288;-67
2023/12/16 02:21:56;;;;;;;16.42;11.52;;;;;;;;;;5009719;28;20309;-67
2023/12/16 02:24:25;;;;;;;11.57;9.70;;;;;;;;;;5022471;28;20242;-67
2023/12/16 02:26:53;;;;;;;18.52;11.32;;;;;;;;;;5020402;28;20325;-67
2023/12/16 02:29:22;;;;;;;18.55;12.43;;;;;;;;;;5010682;28;20249;-67
2023/12/16 02:31:50;;;;;;;12.13;9.73;;;;;;;;;;5013075;28;20285;-67
2023/12/16 02:34:18;;;;;;;15.82;11.30;;;;;;;;;;5001732;28;20282;-67
2023/12/16 02:36:46;;;;;;;21.17;11.95;;;;;;;;;;5012368;28;20297;-67
2023/12/16 02:39:14;;;;;;;15.43;11.00;;;;;;;;;;5006278;28;20621;-67
2023/12/16 02:41:44;;;;;;;17.05;11.35;;;;;;;;;;5002206;28;20282;-66
2023/12/16 02:44:12;;;;;;;23.55;12.82;;;;;;;;;;5010923;28;20301;-66
2023/12/16 02:46:40;;;;;;;18.27;11.38;;;;;;;;;;5020048;28;20257;-67
2023/12/16 02:49:08;;;;;;;22.58;13.25;;;;;;;;;;5019582;28;20285;-66
2023/12/16 02:51:37;;;;;;;19.48;13.88;;;;;;;;;;4989104;28;20277;-67
2023/12/16 02:54:05;;;;;;;17.55;11.70;;;;;;;;;;5011614;28;20305;-66
2023/12/16 02:56:33;;;;;;;18.38;11.65;;;;;;;;;;5025988;28;20206;-67
2023/12/16 02:59:03;;;;;;;16.63;12.43;;;;;;;;;;5015808;28;20261;-67
2023/12/16 03:01:31;;;;;;;29.10;19.73;;;;;;;;;;5014992;28;20670;-66
2023/12/16 03:03:59;;;;;;;30.95;23.60;;;;;;;;;;5007211;28;20293;-67
2023/12/16 03:06:27;;;;;;;31.35;21.77;;;;;;;;;;5000765;28;20254;-67
2023/12/16 03:08:55;;;;;;;25.52;17.75;;;;;;;;;;5000544;28;20258;-67
2023/12/16 03:11:24;;;;;;;31.75;23.73;;;;;;;;;;5001328;28;20263;-67
2023/12/16 03:13:53;;;;;;;17.17;11.30;;;;;;;;;;5006211;28;20284;-66
2023/12/16 03:16:22;;;;;;;16.25;12.13;;;;;;;;;;4999715;28;20250;-67
2023/12/16 03:18:51;;;;;;;15.55;11.48;;;;;;;;;;5001365;28;20281;-67
2023/12/16 03:21:19;;;;;;;19.33;11.93;;;;;;;;;;5001619;28;20266;-67
2023/12/16 03:23:50;;;;;;;21.70;17.02;;;;;;;;;;5001464;28;20270;-67
2023/12/16 03:26:19;;;;;;;19.67;12.57;;;;;;;;;;5013259;28;20270;-67
2023/12/16 03:28:48;;;;;;;21.45;13.40;;;;;;;;;;5021976;28;20685;-67
2023/12/16 03:31:16;;;;;;;19.27;12.75;;;;;;;;;;5022073;28;20688;-67
2023/12/16 03:33:46;;;;;;;12.93;9.90;;;;;;;;;;5021862;28;20332;-67
2023/12/16 03:36:14;;;;;;;15.30;11.10;;;;;;;;;;5011519;28;20276;-66
2023/12/16 03:38:43;;;;;;;17.98;11.73;;;;;;;;;;5023097;28;20225;-67
2023/12/16 03:41:11;;;;;;;17.10;12.10;;;;;;;;;;5021983;28;20265;-66
2023/12/16 03:43:39;;;;;;;16.00;12.23;;;;;;;;;;4984520;28;20250;-67
2023/12/16 03:46:08;;;;;;;21.52;14.18;;;;;;;;;;5004507;28;20687;-67
2023/12/16 03:48:37;;;;;;;17.63;12.77;;;;;;;;;;5013244;28;20250;-67
2023/12/16 03:51:07;;;;;;;16.15;13.38;;;;;;;;;;5004432;28;20237;-67
2023/12/16 03:53:35;;;;;;;15.95;11.30;;;;;;;;;;5005416;28;20234;-67
2023/12/16 03:56:03;;;;;;;20.45;13.20;;;;;;;;;;5016238;28;20280;-67
2023/12/16 03:58:33;;;;;;;20.83;12.65;;;;;;;;;;5009998;28;20195;-67
2023/12/16 04:01:01;;;;;;;18.20;13.00;;;;;;;;;;5002767;28;20313;-67
2023/12/16 04:03:29;;;;;;;17.85;13.05;;;;;;;;;;5021987;28;20259;-67
2023/12/16 04:05:57;;;;;;;21.13;12.90;;;;;;;;;;5024302;28;20240;-67
2023/12/16 04:08:27;;;;;;;14.27;11.55;;;;;;;;;;5023874;28;20230;-67
2023/12/16 04:10:55;;;;;;;17.58;12.35;;;;;;;;;;5018481;28;20236;-67
2023/12/16 04:13:23;;;;;;;15.68;11.07;;;;;;;;;;5024786;28;20236;-67
2023/12/16 04:15:52;;;;;;;17.30;11.50;;;;;;;;;;4991169;28;20242;-67
2023/12/16 04:18:21;;;;;;;19.13;11.90;;;;;;;;;;5015918;28;20233;-67
2023/12/16 04:20:49;;;;;;;19.15;12.55;;;;;;;;;;5027321;28;20256;-67
2023/12/16 04:23:17;;;;;;;17.15;11.40;;;;;;;;;;5010896;28;20264;-66
2023/12/16 04:25:47;;;;;;;16.10;12.43;;;;;;;;;;5001019;28;20234;-66
2023/12/16 04:28:15;;;;;;;21.25;12.90;;;;;;;;;;5031908;28;20284;-67
2023/12/16 04:30:43;;;;;;;16.08;12.00;;;;;;;;;;5025117;28;20340;-67
2023/12/16 04:33:12;;;;;;;17.88;13.30;;;;;;;;;;5008520;28;20265;-67
2023/12/16 04:35:40;;;;;;;18.13;12.15;;;;;;;;;;5021913;28;20234;-67
2023/12/16 04:38:08;;;;;;;21.63;14.38;;;;;;;;;;5025547;28;20234;-67
2023/12/16 04:40:36;;;;;;;16.85;13.13;;;;;;;;;;5006276;28;20254;-67
2023/12/16 04:43:06;;;;;;;18.30;13.07;;;;;;;;;;5007608;28;20791;-67
2023/12/16 04:45:35;;;;;;;22.25;12.40;;;;;;;;;;5009964;28;20258;-67
2023/12/16 04:48:03;;;;;;;16.48;11.57;;;;;;;;;;5025983;28;20221;-68
2023/12/16 04:50:32;;;;;;;18.90;12.57;;;;;;;;;;5015394;28;20241;-67
2023/12/16 04:53:00;;;;;;;19.80;13.25;;;;;;;;;;5012163;28;20229;-67
2023/12/16 04:55:28;;;;;;;17.95;13.32;;;;;;;;;;5014938;28;20226;-66
2023/12/16 04:57:56;;;;;;;21.25;12.25;;;;;;;;;;5015684;28;20286;-67
2023/12/16 05:00:26;;;;;;;18.95;13.15;;;;;;;;;;5012979;28;20359;-66
2023/12/16 05:02:54;;;;;;;18.20;13.68;;;;;;;;;;5000342;28;20278;-66
2023/12/16 05:05:23;;;;;;;18.67;12.57;;;;;;;;;;5019121;28;20254;-67
2023/12/16 05:07:51;;;;;;;18.38;13.02;;;;;;;;;;5023071;28;20630;-66
2023/12/16 05:10:19;;;;;;;19.45;11.75;;;;;;;;;;5020962;28;20626;-67
2023/12/16 05:12:47;;;;;;;20.52;12.85;;;;;;;;;;5014062;28;20226;-67
2023/12/16 05:15:16;;;;;;;18.60;12.70;;;;;;;;;;5019490;28;20222;-67
2023/12/16 05:17:45;;;;;;;27.00;14.32;;;;;;;;;;5017654;28;20337;-67
2023/12/16 05:20:14;;;;;;;24.83;13.27;;;;;;;;;;5004818;28;20286;-67
2023/12/16 05:22:42;;;;;;;20.10;12.43;;;;;;;;;;5004546;28;20268;-66
2023/12/16 05:25:12;;;;;;;28.15;16.25;;;;;;;;;;5003712;28;20287;-67
2023/12/16 05:27:40;;;;;;;19.92;13.07;;;;;;;;;;5016049;28;20282;-67
2023/12/16 05:30:09;;;;;;;19.85;12.23;;;;;;;;;;5009076;28;20285;-67
2023/12/16 05:32:37;;;;;;;23.50;13.40;;;;;;;;;;4984784;28;20283;-67
2023/12/16 05:35:08;;;;;;;19.20;12.60;;;;;;;;;;5008613;28;20277;-68
2023/12/16 05:37:36;;;;;;;16.70;11.70;;;;;;;;;;5004238;28;20218;-68
2023/12/16 05:40:05;;;;;;;19.35;12.93;;;;;;;;;;4994706;28;20321;-68
2023/12/16 05:42:33;;;;;;;22.50;12.45;;;;;;;;;;5022589;28;20270;-67
2023/12/16 05:45:01;;;;;;;18.17;12.10;;;;;;;;;;5020556;28;20285;-67
2023/12/16 05:47:30;;;;;;;20.75;13.70;;;;;;;;;;5008471;28;20270;-68
2023/12/16 05:50:00;;;;;;;16.73;12.38;;;;;;;;;;5010028;28;20743;-67
2023/12/16 05:52:30;;;;;;;22.13;12.93;;;;;;;;;;4990682;28;20245;-67
2023/12/16 05:54:59;;;;;;;27.88;14.10;;;;;;;;;;5040065;28;20228;-67
2023/12/16 05:57:27;;;;;;;26.23;14.98;;;;;;;;;;5035358;28;20287;-67
2023/12/16 05:59:56;;;;;;;20.00;13.85;;;;;;;;;;5009740;28;20230;-67
2023/12/16 06:02:25;;;;;;;27.48;15.05;;;;;;;;;;5007578;28;20270;-67
2023/12/16 06:04:53;;;;;;;18.67;12.63;;;;;;;;;;5036469;28;20252;-68
2023/12/16 06:07:21;;;;;;;23.60;13.95;;;;;;;;;;5015340;28;20261;-68
2023/12/16 06:09:51;;;;;;;23.23;14.85;;;;;;;;;;5023187;28;20281;-68
2023/12/16 06:12:21;;;;;;;23.85;14.13;;;;;;;;;;5010888;28;20242;-67
2023/12/16 06:14:49;;;;;;;25.60;18.00;;;;;;;;;;5022157;28;20238;-68
2023/12/16 06:17:17;;;;;;;26.02;15.20;;;;;;;;;;5016944;28;20222;-68
2023/12/16 06:19:45;;;;;;;21.83;13.23;;;;;;;;;;5017977;28;20237;-67
2023/12/16 06:22:14;;;;;;;23.70;13.25;;;;;;;;;;5015754;28;20705;-67
2023/12/16 06:24:42;;;;;;;23.85;14.73;;;;;;;;;;5010658;28;20226;-67
2023/12/16 06:27:12;;;;;;;29.33;15.38;;;;;;;;;;5013015;28;20269;-66
2023/12/16 06:29:40;;;;;;;25.27;14.60;;;;;;;;;;5024474;28;20229;-68
2023/12/16 06:32:09;;;;;;;24.85;13.90;;;;;;;;;;5022394;28;20226;-66
2023/12/16 06:34:37;;;;;;;20.67;13.70;;;;;;;;;;5004511;28;20241;-67
2023/12/16 06:37:06;;;;;;;21.20;14.23;;;;;;;;;;5011034;28;20233;-67
2023/12/16 06:39:34;;;;;;;23.25;14.25;;;;;;;;;;5013462;28;20237;-67
2023/12/16 06:42:02;;;;;;;21.85;16.00;;;;;;;;;;5005861;28;20234;-68
2023/12/16 06:44:32;;;;;;;23.95;14.65;;;;;;;;;;5005494;28;20321;-67
2023/12/16 06:47:00;;;;;;;23.67;15.55;;;;;;;;;;5008590;28;20249;-67
2023/12/16 06:49:29;;;;;;;21.17;13.50;;;;;;;;;;5015930;28;20282;-67
2023/12/16 06:51:57;;;;;;;23.35;15.02;;;;;;;;;;5008981;28;20245;-67
2023/12/16 06:54:25;;;;;;;21.00;12.70;;;;;;;;;;5013752;28;20238;-66
2023/12/16 06:56:53;;;;;;;22.10;13.10;;;;;;;;;;5020185;28;20241;-66
2023/12/16 06:59:22;;;;;;;17.85;12.50;;;;;;;;;;5000565;28;20222;-66
2023/12/16 07:01:51;;;;;;;32.67;18.52;;;;;;;;;;5006657;28;20288;-66
2023/12/16 07:04:19;;;;;;;36.13;19.17;;;;;;;;;;5011723;28;20274;-67
2023/12/16 07:06:48;;;;;;;27.75;17.10;;;;;;;;;;5011486;28;20229;-66
2023/12/16 07:09:16;;;;;;;17.58;13.15;;;;;;;;;;5004500;28;20262;-66
2023/12/16 07:11:44;;;;;;;20.27;12.43;;;;;;;;;;5006106;28;20230;-66
2023/12/16 07:14:12;;;;;;;22.98;13.88;;;;;;;;;;5009744;28;20225;-65
2023/12/16 07:16:41;;;;;;;16.25;11.20;;;;;;;;;;5008662;28;20226;-65
2023/12/16 07:19:10;;;;;;;17.45;11.40;;;;;;;;;;5010734;28;20261;-66
2023/12/16 07:21:42;;;;;;;16.75;11.68;;;;;;;;;;5015752;28;20207;-67
2023/12/16 07:24:10;;;;;;;20.88;11.20;;;;;;;;;;5006481;28;20283;-67
2023/12/16 07:26:38;;;;;;;20.95;13.35;;;;;;;;;;5005671;28;20705;-67
2023/12/16 07:29:07;;;;;;;19.55;12.55;;;;;;;;;;5032228;28;20329;-67
2023/12/16 07:31:35;;;;;;;16.85;11.90;;;;;;;;;;5001907;28;20295;-66
2023/12/16 07:34:03;;;;;;;18.88;11.75;;;;;;;;;;5012650;28;20323;-66
2023/12/16 07:36:33;;;;;;;17.52;13.13;;;;;;;;;;5005636;28;20293;-66
2023/12/16 07:39:01;;;;;;;18.92;12.60;;;;;;;;;;4992758;28;20295;-66
2023/12/16 07:41:29;;;;;;;27.02;12.30;;;;;;;;;;4998174;28;20301;-67
2023/12/16 07:43:57;;;;;;;16.85;10.95;;;;;;;;;;5003985;28;20281;-67
2023/12/16 07:46:26;;;;;;;25.45;13.75;;;;;;;;;;5003356;28;20669;-67
2023/12/16 07:48:54;;;;;;;27.30;13.65;;;;;;;;;;5002298;28;20223;-66
2023/12/16 07:51:25;;;;;;;19.48;12.40;;;;;;;;;;5001010;28;20253;-66
2023/12/16 07:53:55;;;;;;;16.90;12.15;;;;;;;;;;5004241;28;20215;-68
2023/12/16 07:56:24;;;;;;;24.38;12.30;;;;;;;;;;5009235;28;20218;-66
2023/12/16 07:58:52;;;;;;;17.90;12.30;;;;;;;;;;4998700;28;20230;-66
2023/12/16 08:01:21;;;;;;;20.88;13.82;;;;;;;;;;5002189;28;20211;-66
2023/12/16 08:03:49;;;;;;;23.73;14.88;;;;;;;;;;4998509;28;20703;-65
2023/12/16 08:06:18;;;;;;;27.00;14.48;;;;;;;;;;4989559;28;20199;-63
2023/12/16 08:08:46;;;;;;;23.83;14.32;;;;;;;;;;4982665;28;20207;-63
2023/12/16 08:11:16;;;;;;;22.52;14.65;;;;;;;;;;4987670;28;20207;-63
2023/12/16 08:13:44;;;;;;;23.48;14.88;;;;;;;;;;5002244;28;20203;-64
2023/12/16 08:16:12;;;;;;;25.45;15.30;;;;;;;;;;4997833;28;20672;-63
2023/12/16 08:18:41;;;;;;;22.75;14.45;;;;;;;;;;4996614;28;20249;-66
2023/12/16 08:21:09;;;;;;;23.15;14.95;;;;;;;;;;4990541;28;20194;-63
2023/12/16 08:23:37;;;;;;;26.02;15.73;;;;;;;;;;4985662;28;20222;-63
2023/12/16 08:26:10;;;;;;;27.00;16.25;;;;;;;;;;4983286;28;20202;-64
2023/12/16 08:28:41;;;;;;;22.73;13.10;;;;;;;;;;5000730;28;20721;-63
2023/12/16 08:31:09;;;;;;;23.80;15.25;;;;;;;;;;4992847;28;20686;-63
2023/12/16 08:33:38;;;;;;;25.73;15.85;;;;;;;;;;4974501;28;20564;-63
2023/12/16 08:36:06;;;;;;;24.45;15.98;;;;;;;;;;4986461;28;20198;-63
2023/12/16 08:38:36;;;;;;;25.52;17.02;;;;;;;;;;4981865;28;20209;-63
2023/12/16 08:41:07;;;;;;;28.13;16.70;;;;;;;;;;4990828;28;20234;-63
2023/12/16 08:43:35;;;;;;;21.30;15.27;;;;;;;;;;4992264;28;20231;-63
2023/12/16 08:46:05;;;;;;;20.55;14.00;;;;;;;;;;5001572;28;20201;-64
2023/12/16 08:48:34;;;;;;;22.48;14.60;;;;;;;;;;4987508;28;20191;-63
2023/12/16 08:51:02;;;;;;;23.33;15.18;;;;;;;;;;4987305;28;20671;-64
2023/12/16 08:53:30;;;;;;;21.77;14.45;;;;;;;;;;5000803;28;20251;-63
2023/12/16 08:55:58;;;;;;;20.25;14.13;;;;;;;;;;4990903;28;20198;-63
2023/12/16 08:58:27;;;;;;;19.83;14.15;;;;;;;;;;4982004;28;20260;-64
2023/12/16 09:00:55;;;;;;;22.95;14.93;;;;;;;;;;4981796;28;20209;-64
2023/12/16 09:03:25;;;;;;;23.75;15.45;;;;;;;;;;4982143;28;20222;-63
2023/12/16 09:05:53;;;;;;;27.33;15.48;;;;;;;;;;4972119;28;20206;-63
2023/12/16 09:08:21;;;;;;;20.65;15.48;;;;;;;;;;4991190;28;20203;-63
2023/12/16 09:10:49;;;;;;;31.25;17.27;;;;;;;;;;4990745;28;20203;-63
2023/12/16 09:13:17;;;;;;;23.58;16.98;;;;;;;;;;5030028;28;20195;-63
2023/12/16 09:15:46;;;;;;;22.88;17.02;;;;;;;;;;4997077;28;20206;-64
2023/12/16 09:18:14;;;;;;;25.45;15.77;;;;;;;;;;4995893;28;20279;-63
2023/12/16 09:20:44;;;;;;;21.00;15.25;;;;;;;;;;4997225;28;20198;-63
2023/12/16 09:23:12;;;;;;;29.63;17.67;;;;;;;;;;5010356;28;20629;-63
2023/12/16 09:25:40;;;;;;;24.77;13.82;;;;;;;;;;5010442;28;20214;-63
2023/12/16 09:28:08;;;;;;;24.50;16.08;;;;;;;;;;5011329;28;20202;-64
2023/12/16 09:30:36;;;;;;;20.40;13.32;;;;;;;;;;4989011;28;20229;-63
2023/12/16 09:33:05;;;;;;;32.75;15.45;;;;;;;;;;5003247;28;20202;-63
2023/12/16 09:35:34;;;;;;;19.65;15.07;;;;;;;;;;5007345;28;20194;-63
2023/12/16 09:38:03;;;;;;;31.55;16.75;;;;;;;;;;5008597;28;20525;-63
2023/12/16 09:40:32;;;;;;;21.65;14.90;;;;;;;;;;5007607;28;20226;-63
2023/12/16 09:43:11;;;;;;;20.33;15.02;;;;;;;;;;5009577;28;20216;-63
2023/12/16 09:45:39;;;;;;;18.42;12.68;;;;;;;;;;5007161;28;20198;-63
2023/12/16 09:48:07;;;;;;;20.05;13.45;;;;;;;;;;4996041;28;20198;-63
2023/12/16 09:50:37;;;;;;;18.73;12.40;;;;;;;;;;4995761;28;20209;-63
2023/12/16 09:53:07;;;;;;;17.52;13.00;;;;;;;;;;5004572;28;20247;-63
2023/12/16 09:55:35;;;;;;;18.33;11.85;;;;;;;;;;4990484;28;20229;-63
2023/12/16 09:58:04;;;;;;;19.63;12.55;;;;;;;;;;4992130;28;20211;-63
2023/12/16 10:00:33;;;;;;;17.67;12.98;;;;;;;;;;4995969;28;20198;-64
2023/12/16 10:03:01;;;;;;;16.27;11.82;;;;;;;;;;5006972;28;20576;-63
2023/12/16 10:05:31;;;;;;;16.95;12.05;;;;;;;;;;4990245;28;20218;-63
2023/12/16 10:08:01;;;;;;;14.60;11.50;;;;;;;;;;4990086;28;20206;-64
2023/12/16 10:10:30;;;;;;;16.60;11.02;;;;;;;;;;4990209;28;20198;-65
2023/12/16 10:13:03;;;;;;;13.98;10.40;;;;;;;;;;4988303;28;20203;-64
2023/12/16 10:15:32;;;;;;;13.98;10.63;;;;;;;;;;5009774;28;20623;-64
2023/12/16 10:18:02;;;;;;;13.88;10.00;;;;;;;;;;4985825;28;20555;-64
2023/12/16 10:20:30;;;;;;;14.82;10.43;;;;;;;;;;4992901;28;20199;-64
2023/12/16 10:23:01;;;;;;;12.63;9.13;;;;;;;;;;4989804;28;20232;-64
2023/12/16 10:25:32;;;;;;;16.60;9.70;;;;;;;;;;5007753;28;20206;-64
2023/12/16 10:28:02;;;;;;;15.65;10.45;;;;;;;;;;5007022;28;20656;-65
2023/12/16 10:30:30;;;;;;;13.55;9.10;;;;;;;;;;5005820;28;20194;-64
2023/12/16 10:33:02;;;;;;;14.45;8.95;;;;;;;;;;4973587;28;20254;-64
2023/12/16 10:35:30;;;;;;;15.20;10.20;;;;;;;;;;4983700;28;20205;-64
2023/12/16 10:37:58;;;;;;;15.52;11.80;;;;;;;;;;5005883;28;20209;-65
2023/12/16 10:40:27;;;;;;;13.27;9.63;;;;;;;;;;5007914;28;20229;-64
2023/12/16 10:42:56;;;;;;;14.07;10.73;;;;;;;;;;4998853;28;20549;-65
2023/12/16 10:45:25;;;;;;;16.90;10.30;;;;;;;;;;5001189;28;20219;-64
2023/12/16 10:47:55;;;;;;;17.92;12.45;;;;;;;;;;5006036;28;20672;-64
2023/12/16 10:50:24;;;;;;;17.02;10.23;;;;;;;;;;5037192;28;20240;-64
2023/12/16 10:52:53;;;;;;;13.60;9.70;;;;;;;;;;4999683;28;20254;-65
2023/12/16 10:55:24;;;;;;;11.20;8.77;;;;;;;;;;5007720;28;20198;-64
2023/12/16 10:57:58;;;;;;;12.50;9.13;;;;;;;;;;5008475;28;20648;-64
2023/12/16 11:00:30;;;;;;;10.73;9.07;;;;;;;;;;5008390;28;20212;-65
2023/12/16 11:03:04;;;;;;;11.85;9.35;;;;;;;;;;4990916;28;20683;-65
2023/12/16 11:05:34;;;;;;;15.55;11.20;;;;;;;;;;5004866;28;20224;-65
2023/12/16 11:08:03;;;;;;;10.00;9.00;;;;;;;;;;4977008;28;20327;-64
2023/12/16 11:10:31;;;;;;;12.80;10.73;;;;;;;;;;4995102;28;20625;-64
2023/12/16 11:13:00;;;;;;;12.33;10.97;;;;;;;;;;4987455;28;20678;-65
2023/12/16 11:15:31;;;;;;;11.40;9.97;;;;;;;;;;4998730;28;20596;-64
2023/12/16 11:18:02;;;;;;;12.90;11.60;;;;;;;;;;4978108;28;20931;-65
2023/12/16 11:20:38;;;;;;;11.80;10.70;;;;;;;;;;4970619;28;20637;-64
2023/12/16 11:23:10;;;;;;;11.93;10.50;;;;;;;;;;4990056;28;20611;-65
2023/12/16 11:25:39;;;;;;;12.10;11.10;;;;;;;;;;4999850;28;20641;-64
2023/12/16 11:28:07;;;;;;;11.43;10.43;;;;;;;;;;4981636;28;20630;-64
2023/12/16 11:30:37;;;;;;;13.10;11.23;;;;;;;;;;4973651;28;20614;-64
2023/12/16 11:33:05;;;;;;;12.03;11.17;;;;;;;;;;5001801;28;20613;-64
2023/12/16 11:35:45;;;;;;;13.60;12.00;;;;;;;;;;4992199;28;20645;-63
2023/12/16 11:38:28;;;;;;;12.57;11.57;;;;;;;;;;4990141;28;20977;-63
2023/12/16 11:40:58;;;;;;;15.60;14.17;;;;;;;;;;4978401;28;20648;-64
2023/12/16 11:43:46;;;;;;;14.20;12.93;;;;;;;;;;5004241;28;20630;-65
2023/12/16 11:46:30;;;;;;;13.87;12.60;;;;;;;;;;4980887;28;20650;-64
2023/12/16 11:48:59;;;;;;;13.23;12.27;;;;;;;;;;4999974;28;20618;-64
2023/12/16 11:51:28;;;;;;;13.17;12.23;;;;;;;;;;4994472;28;20638;-65
2023/12/16 11:53:58;;;;;;;13.47;12.30;;;;;;;;;;4975564;28;21021;-64
2023/12/16 11:56:26;;;;;;;13.97;12.43;;;;;;;;;;4986887;28;20674;-64
2023/12/16 11:58:57;;;;;;;13.43;12.50;;;;;;;;;;5008777;28;20695;-65
2023/12/16 12:01:28;;;;;;;18.17;13.30;;;;;;;;;;4995593;28;20613;-64
2023/12/16 12:03:57;;;;;;;15.43;14.23;;;;;;;;;;4989403;28;21276;-65
2023/12/16 12:06:27;;;;;;;15.07;13.80;;;;;;;;;;5006410;28;20669;-64
2023/12/16 12:08:55;;;;;;;15.10;13.80;;;;;;;;;;5001766;28;20965;-64
2023/12/16 12:11:23;;;;;;;14.70;13.67;;;;;;;;;;5005343;28;20658;-66
2023/12/16 12:13:52;;;;;;;16.13;14.67;;;;;;;;;;4999485;28;20618;-65
2023/12/16 12:16:21;;;;;;;15.47;14.03;;;;;;;;;;4987675;28;20632;-63
2023/12/16 12:18:49;;;;;;;14.27;13.27;;;;;;;;;;4998063;28;20617;-64
2023/12/16 12:21:18;;;;;;;14.03;13.03;;;;;;;;;;5005359;28;20620;-64
2023/12/16 12:23:47;;;;;;;19.23;16.87;;;;;;;;;;5004703;28;20979;-65
2023/12/16 12:26:20;;;;;;;14.50;13.20;;;;;;;;;;5006833;28;20659;-65
2023/12/16 12:28:58;;;;;;;15.77;14.77;;;;;;;;;;4999471;28;20587;-65
2023/12/16 12:31:27;;;;;;;15.60;14.37;;;;;;;;;;4993434;28;20601;-65
2023/12/16 12:33:55;;;;;;;15.63;14.10;;;;;;;;;;5009807;28;20984;-65
2023/12/16 12:36:24;;;;;;;15.83;14.50;;;;;;;;;;4993287;28;20597;-65
2023/12/16 12:38:56;;;;;;;24.40;14.70;;;;;;;;;;5002884;28;20988;-64
2023/12/16 12:41:25;;;;;;;16.63;15.10;;;;;;;;;;4990979;28;20641;-65
2023/12/16 12:43:53;;;;;;;16.83;15.20;;;;;;;;;;4995518;28;20668;-65
2023/12/16 12:46:22;;;;;;;15.43;14.43;;;;;;;;;;4979544;28;20712;-66
2023/12/16 12:48:55;;;;;;;16.10;15.10;;;;;;;;;;4980373;28;20615;-65
2023/12/16 12:51:24;;;;;;;15.50;14.40;;;;;;;;;;4994648;28;20629;-66
2023/12/16 12:53:58;;;;;;;16.23;14.70;;;;;;;;;;4991383;28;21015;-66
2023/12/16 12:56:26;;;;;;;16.40;14.97;;;;;;;;;;4974349;28;20599;-65
2023/12/16 12:58:54;;;;;;;15.00;14.20;;;;;;;;;;4986270;28;20974;-64
2023/12/16 13:01:22;;;;;;;15.70;14.20;;;;;;;;;;4991411;28;20635;-65
2023/12/16 13:03:51;;;;;;;15.57;14.40;;;;;;;;;;4991188;28;21229;-67
2023/12/16 13:06:19;;;;;;;16.37;15.13;;;;;;;;;;4997825;28;20687;-64
2023/12/16 13:08:47;;;;;;;16.30;15.30;;;;;;;;;;5016019;28;20627;-64
2023/12/16 13:11:17;;;;;;;16.97;15.87;;;;;;;;;;4991517;28;20633;-65
2023/12/16 13:13:45;;;;;;;15.40;14.40;;;;;;;;;;4997046;28;20667;-64
2023/12/16 13:16:14;;;;;;;15.87;14.53;;;;;;;;;;4991248;28;20690;-64
2023/12/16 13:18:43;;;;;;;15.17;14.17;;;;;;;;;;4990951;28;21032;-64
2023/12/16 13:21:11;;;;;;;15.50;14.37;;;;;;;;;;5010138;28;21047;-65
2023/12/16 13:23:43;;;;;;;14.17;13.10;;;;;;;;;;5055517;28;20606;-64
2023/12/16 13:26:12;;;;;;;14.73;13.70;;;;;;;;;;4998780;28;20665;-64
2023/12/16 13:28:42;;;;;;;15.73;14.20;;;;;;;;;;4993895;28;20629;-66
2023/12/16 13:31:10;;;;;;;14.13;13.10;;;;;;;;;;4995457;28;20615;-64
2023/12/16 13:33:42;;;;;;;14.10;13.10;;;;;;;;;;4992167;28;20632;-64
2023/12/16 13:36:10;;;;;;;13.97;12.67;;;;;;;;;;5003680;28;20601;-63
2023/12/16 13:38:38;;;;;;;12.90;12.00;;;;;;;;;;5005327;28;20625;-63
2023/12/16 13:41:09;;;;;;;13.95;12.82;;;;;;;;;;5012037;28;21020;-64
2023/12/16 13:43:37;;;;;;;13.65;12.60;;;;;;;;;;5001296;28;20233;-63
2023/12/16 13:46:07;;;;;;;13.60;12.70;;;;;;;;;;4989702;28;20219;-64
2023/12/16 13:48:36;;;;;;;16.60;15.00;;;;;;;;;;4996330;28;20202;-63
2023/12/16 13:51:04;;;;;;;14.05;13.05;;;;;;;;;;5005505;28;20266;-64
2023/12/16 13:53:32;;;;;;;13.77;12.98;;;;;;;;;;4998527;28;20303;-64
2023/12/16 13:56:01;;;;;;;14.30;13.20;;;;;;;;;;4999032;28;20198;-63
2023/12/16 13:58:29;;;;;;;12.10;11.40;;;;;;;;;;5019994;28;21161;-64
2023/12/16 14:00:58;;;;;;;13.10;12.07;;;;;;;;;;4987334;28;20661;-64
2023/12/16 14:03:28;;;;;;;13.27;11.52;;;;;;;;;;4982619;28;20626;-64
2023/12/16 14:05:56;;;;;;;12.55;11.70;;;;;;;;;;5003260;28;20214;-64
2023/12/16 14:08:24;;;;;;;12.55;11.63;;;;;;;;;;5006654;28;20265;-64
2023/12/16 14:10:52;;;;;;;13.13;12.00;;;;;;;;;;5007750;28;20202;-64
2023/12/16 14:13:22;;;;;;;12.95;11.98;;;;;;;;;;5000598;28;20202;-64
2023/12/16 14:15:51;;;;;;;12.15;11.27;;;;;;;;;;4988392;28;20202;-64
2023/12/16 14:18:19;;;;;;;11.65;10.55;;;;;;;;;;5016015;28;20203;-64
2023/12/16 14:20:48;;;;;;;12.37;11.27;;;;;;;;;;4979921;28;20194;-64
2023/12/16 14:23:17;;;;;;;11.87;11.00;;;;;;;;;;4984800;28;21195;-64
2023/12/16 14:25:45;;;;;;;11.03;10.23;;;;;;;;;;4985332;28;20661;-64
2023/12/16 14:28:13;;;;;;;12.10;11.10;;;;;;;;;;4979666;28;20635;-63